Pembroke Pines, FL (33025)

1:04 AM EDT on September 16, 2014 (GMT -0400)
APRSWXNET Miramar FL US | Change Station
CLOSE
Current Station
Personal Weather Station
Location: Pembroke Pines, FL
Elevation: 6 ft
Nearby Weather Stations

Elev 6 ft 25.99 °N, 80.28 °W | Updated 31 minutes ago

Clear
Clear
79.0 °F
Feels Like 83 °F
N
0.0
Wind Variable Wind from ESE
Gusts 0.0 mph

Today
High -- | Low -- °F
--% Chance of Precip.
Yesterday
High -- | Low -- °F
Precip. -- in
7:07 AM 7:24 PM
Waning Gibbous, 49% visible
Pressure 30.12 in
Visibility 10.0 miles
Clouds Clear
Heat Index 83 °F
Dew Point 75.0 °F
Humidity 89%
Rainfall 0.00 in
Snow Depth Not available.
UV 0 out of 12
Pollen 3.60 out of 12
Air Quality Not available.
Flu Activity Not available.
METAR KOPF 160453Z AUTO 00000KT 10SM CLR 27/23 A3012 RMK AO2 SLP199 T02720233 403220256

More Conditions Fewer Conditions

Pressure 30.12 in
Visibility 10.0 miles
Clouds Clear
Heat Index 83 °F
Dew Point 75.0 °F
Humidity 89%
Rainfall 0.00 in
Snow Depth Not available.
UV 0 out of 12
Pollen 3.60 out of 12
Air Quality Not available.
Flu Activity Not available.
METAR KOPF 160453Z AUTO 00000KT 10SM CLR 27/23 A3012 RMK AO2 SLP199 T02720233 403220256

More Conditions Fewer Conditions

10-Day Weather Forecast

Almanac

Astronomy

Sep. 16, 2014 Rise Set
Actual Time 7:07 AM EDT 7:24 PM EDT
Civil Twilight 6:44 AM EDT 7:47 PM EDT
Nautical Twilight 6:17 AM EDT 8:14 PM EDT
Astronomical Twilight 5:50 AM EDT 8:41 PM EDT
Moon 12:40 AM EDT 2:22 PM EDT
Length of Visible Light 13h 03m
Length of Day
12h 16m
Tomorrow will be 1m 30s shorter.
Waning Gibbous, 49% of the Moon is Illuminated
Today
Waning Gibbous
Sep 24
New
Oct 1
First Quarter
Oct 8
Full
Oct 15
Last Quarter

Today's Extremes

State Highs State Lows

Community

WunderPhotos

Upload Photos

1,753,702 photos uploaded!

Nearby

Air Quality

  Air Quality AQ Index Pollutant
Yesterday Good
OZONE
Monday Moderate
PM2.5
Monday Good
OZONE
Tuesday Good
OZONE
Tuesday Good
PM2.5
Wednesday Good
OZONE
Wednesday Good
PM2.5
Thursday Good
OZONE
Thursday Good
PM2.5
Friday Good
OZONE
Friday Good
PM2.5
Saturday Good
OZONE
Saturday Good
PM2.5

Snow Depth

Station Depth Elevation
No new snow has been reported.

Earthquake Activity

City Distance Mag. Time & Date
No recent earthquake activity has been reported nearby.
Minimum magnitude displayed is 2.5.

Coastal Water Temperatures

Place Temperature
Virginia Key, FL 84.9 °F

Nearby Weather Stations